Time;durP1;ratioP1;P1;durP2;ratioP2;P2;SDS_P1;SDS_P2;PMS_P1;PMS_P2;Temp;Humidity;BMP_temperature;BMP_pressure;BME280_temperature;BME280_humidity;BME280_pressure;Samples;Min_cycle;Max_cycle;Signal;HPM_P1;HPM_P2
2021/06/25 00:01:03;;;;;;;7.87;6.27;;;;;;;16.65;88.91;98251.95;126196;1093;22750;-82
2021/06/25 00:03:30;;;;;;;11.03;6.20;;;;;;;16.68;88.76;98262.38;126200;1093;22765;-82
2021/06/25 00:05:57;;;;;;;7.40;5.57;;;;;;;16.74;89.29;98273.33;126213;1093;22787;-83
2021/06/25 00:08:24;;;;;;;7.77;6.03;;;;;;;16.79;88.74;98278.78;126186;1093;22778;-82
2021/06/25 00:10:51;;;;;;;8.70;5.80;;;;;;;16.82;88.86;98279.02;126216;1093;22781;-83
2021/06/25 00:13:18;;;;;;;7.53;5.20;;;;;;;16.87;88.95;98281.75;126195;1093;22852;-82
2021/06/25 00:15:45;;;;;;;7.63;4.63;;;;;;;16.92;88.63;98277.30;126146;1093;24575;-82
2021/06/25 00:18:13;;;;;;;6.10;4.97;;;;;;;16.96;88.35;98270.09;126205;1093;22777;-82
2021/06/25 00:20:55;;;;;;;7.93;5.40;;;;;;;17.04;88.42;98283.22;126167;1093;22784;-82
2021/06/25 00:23:22;;;;;;;7.13;5.47;;;;;;;17.11;88.64;98291.13;126226;1093;22757;-82
2021/06/25 00:25:49;;;;;;;5.50;4.83;;;;;;;17.13;87.56;98278.71;126196;1093;25865;-83
2021/06/25 00:28:16;;;;;;;9.53;4.58;;;;;;;17.15;87.51;98294.93;126210;1093;22802;-82
2021/06/25 00:30:43;;;;;;;6.43;4.68;;;;;;;17.18;87.72;98303.42;126201;1093;26251;-82
2021/06/25 00:33:11;;;;;;;6.75;4.20;;;;;;;17.16;87.01;98300.15;126245;1093;22761;-83
2021/06/25 00:35:38;;;;;;;9.87;4.93;;;;;;;17.16;86.95;98305.66;126153;1093;22769;-82
2021/06/25 00:38:05;;;;;;;7.48;4.83;;;;;;;17.18;87.09;98308.92;126238;1093;22736;-82
2021/06/25 00:40:34;;;;;;;5.77;4.00;;;;;;;17.12;86.82;98304.58;126265;1093;26239;-82
2021/06/25 00:43:01;;;;;;;7.23;3.55;;;;;;;17.09;86.95;98294.17;126211;1093;22803;-82
2021/06/25 00:45:28;;;;;;;5.65;3.23;;;;;;;17.11;87.17;98291.13;126317;1093;24291;-83
2021/06/25 00:47:55;;;;;;;6.13;3.70;;;;;;;17.13;87.36;98289.72;126230;1093;22761;-83
2021/06/25 00:50:28;;;;;;;7.17;4.13;;;;;;;17.14;86.87;98313.38;126166;1093;22765;-83
2021/06/25 00:52:57;;;;;;;7.20;3.73;;;;;;;17.11;86.94;98324.96;126307;1093;22986;-82
2021/06/25 00:55:25;;;;;;;;;;;;;;;17.13;86.69;98333.74;126376;1093;22809;-83
2021/06/25 00:57:53;;;;;;;6.80;3.80;;;;;;;17.19;87.26;98320.75;126218;1093;22809;-82
2021/06/25 01:00:21;;;;;;;3.83;3.40;;;;;;;17.21;87.09;98330.36;126265;1092;23625;-82
2021/06/25 01:02:47;;;;;;;5.45;3.65;;;;;;;17.25;87.11;98328.66;126285;1093;22790;-82
2021/06/25 01:05:16;;;;;;;6.23;3.87;;;;;;;17.27;87.00;98317.36;126292;1093;27189;-82
2021/06/25 01:07:45;;;;;;;9.35;3.90;;;;;;;17.23;86.41;98316.32;126091;1093;26245;-82
2021/06/25 01:10:12;;;;;;;5.55;3.75;;;;;;;17.16;86.24;98296.58;126163;1093;27157;-82
2021/06/25 01:12:55;;;;;;;3.48;3.10;;;;;;;17.04;85.79;98281.28;126154;1093;27326;-82
2021/06/25 01:15:22;;;;;;;5.20;3.20;;;;;;;16.97;85.71;98282.75;126141;1093;27178;-82
2021/06/25 01:17:49;;;;;;;7.90;3.70;;;;;;;16.87;86.53;98283.66;126178;1091;22775;-81
2021/06/25 01:20:22;;;;;;;4.93;3.63;;;;;;;16.82;87.18;98286.42;126070;1093;26226;-82
2021/06/25 01:22:49;;;;;;;7.80;3.03;;;;;;;16.79;86.79;98289.78;126208;1093;22725;-82
2021/06/25 01:25:28;;;;;;;5.55;3.60;;;;;;;16.78;87.35;98286.19;126228;1093;22909;-82
2021/06/25 01:27:57;;;;;;;8.60;4.38;;;;;;;16.82;87.26;98289.17;126060;1093;27266;-82
2021/06/25 01:30:43;;;;;;;7.80;4.30;;;;;;;16.85;87.30;98274.88;126036;1093;27169;-82
2021/06/25 01:33:13;;;;;;;6.60;4.60;;;;;;;16.88;87.11;98261.37;126107;1093;22748;-82
2021/06/25 01:35:40;;;;;;;11.03;5.28;;;;;;;16.92;87.11;98274.55;126216;1093;22778;-82
2021/06/25 01:38:09;;;;;;;9.10;5.37;;;;;;;16.87;86.55;98292.75;126122;1093;22761;-82
2021/06/25 01:40:37;;;;;;;9.23;5.18;;;;;;;16.80;86.18;98281.24;126345;1093;27390;-82
2021/06/25 01:43:05;;;;;;;9.73;5.03;;;;;;;16.76;86.73;98285.66;126081;1093;27157;-82
2021/06/25 01:45:36;;;;;;;9.75;4.53;;;;;;;16.69;86.86;98293.43;126170;1093;26925;-82
2021/06/25 01:48:04;;;;;;;9.58;5.20;;;;;;;16.59;87.46;98302.61;126210;1093;22828;-82
2021/06/25 01:50:36;;;;;;;;;;;;;;;16.54;88.27;98312.80;126183;1093;22923;-82
2021/06/25 01:53:04;;;;;;;7.10;3.75;;;;;;;16.41;88.65;98334.34;126292;1093;21585;-83
2021/06/25 01:55:40;;;;;;;8.88;4.80;;;;;;;16.35;88.96;98343.74;126287;1093;22771;-82
2021/06/25 01:58:16;;;;;;;9.43;4.55;;;;;;;16.38;88.93;98323.09;126358;1093;25996;-82
2021/06/25 02:00:51;;;;;;;5.15;3.50;;;;;;;16.46;88.96;98300.51;126292;1093;22775;-82
2021/06/25 02:03:17;;;;;;;7.67;3.50;;;;;;;16.54;88.95;98285.31;126177;1093;22906;-82
2021/06/25 02:05:59;;;;;;;6.00;3.00;;;;;;;16.62;89.15;98281.95;126203;1093;24389;-82
2021/06/25 02:08:26;;;;;;;4.95;2.40;;;;;;;16.66;89.08;98292.09;126100;1093;22903;-82
2021/06/25 02:10:53;;;;;;;3.93;2.57;;;;;;;16.74;88.87;98317.33;126177;1093;24391;-82
2021/06/25 02:13:19;;;;;;;8.03;3.03;;;;;;;16.77;88.49;98347.81;126122;1093;26280;-81
2021/06/25 02:15:46;;;;;;;3.33;2.18;;;;;;;16.72;88.11;98361.61;126074;1093;22774;-82
2021/06/25 02:18:13;;;;;;;4.93;2.38;;;;;;;16.70;88.38;98345.39;126114;1092;27323;-81
2021/06/25 02:20:40;;;;;;;5.03;2.70;;;;;;;16.73;88.83;98324.73;126162;1093;22802;-81
2021/06/25 02:23:08;;;;;;;6.67;2.50;;;;;;;16.79;88.55;98307.09;126028;1093;22748;-81
2021/06/25 02:25:35;;;;;;;3.70;2.07;;;;;;;16.82;88.44;98301.02;126088;1093;22829;-82
2021/06/25 02:28:16;;;;;;;5.28;2.28;;;;;;;16.84;88.39;98289.77;126189;1092;27277;-81
2021/06/25 02:30:43;;;;;;;4.10;2.23;;;;;;;16.89;88.66;98271.27;126215;1093;25858;-82
2021/06/25 02:33:10;;;;;;;5.95;2.98;;;;;;;16.92;87.99;98258.05;126212;1092;22819;-82
2021/06/25 02:35:52;;;;;;;4.73;2.28;;;;;;;16.91;87.88;98262.73;126068;1093;22767;-82
2021/06/25 02:38:19;;;;;;;3.65;2.20;;;;;;;16.92;87.90;98258.85;126038;1093;22769;-82
2021/06/25 02:40:45;;;;;;;3.63;2.30;;;;;;;16.96;88.35;98256.34;126144;1093;26229;-82
2021/06/25 02:43:12;;;;;;;5.15;2.30;;;;;;;17.00;88.23;98262.91;126069;1093;22826;-82
2021/06/25 02:45:39;;;;;;;4.33;3.20;;;;;;;17.05;88.59;98282.09;126087;1092;22903;-82
2021/06/25 02:48:06;;;;;;;4.53;2.65;;;;;;;17.11;88.37;98305.70;126195;1093;24394;-82
2021/06/25 02:50:33;;;;;;;4.33;2.65;;;;;;;17.16;88.33;98311.16;126080;1093;26299;-82
2021/06/25 02:53:00;;;;;;;3.15;2.10;;;;;;;17.25;88.28;98327.84;126174;1093;22790;-81
2021/06/25 02:55:27;;;;;;;4.98;2.50;;;;;;;17.32;87.77;98325.56;126062;1093;24570;-81
2021/06/25 02:57:54;;;;;;;4.35;2.10;;;;;;;17.37;87.69;98328.27;126149;1093;22764;-82
2021/06/25 03:00:22;;;;;;;2.95;2.10;;;;;;;17.40;87.31;98357.13;126109;1093;22748;-82
2021/06/25 03:03:03;;;;;;;4.57;2.90;;;;;;;17.38;86.81;98392.39;126155;1093;24389;-82
2021/06/25 03:05:30;;;;;;;4.93;2.20;;;;;;;17.30;86.35;98420.53;126081;1093;22832;-81
2021/06/25 03:07:57;;;;;;;5.25;2.53;;;;;;;17.15;87.30;98455.34;126018;1093;27473;-82
2021/06/25 03:10:39;;;;;;;4.48;2.25;;;;;;;17.06;87.35;98457.89;126084;1093;22839;-81
2021/06/25 03:13:21;;;;;;;3.33;2.13;;;;;;;17.05;87.13;98359.97;126175;1092;26350;-81
2021/06/25 03:15:49;;;;;;;2.73;1.70;;;;;;;17.05;87.96;98227.06;126001;1093;22778;-81
2021/06/25 03:18:17;;;;;;;6.13;2.15;;;;;;;17.00;87.99;98211.45;126162;1093;22796;-82
2021/06/25 03:20:58;;;;;;;5.70;2.30;;;;;;;16.99;88.01;98242.82;126065;1093;22775;-82
2021/06/25 03:23:26;;;;;;;6.13;2.10;;;;;;;17.01;87.47;98259.03;126166;1093;22761;-81
2021/06/25 03:25:53;;;;;;;3.93;2.00;;;;;;;17.05;87.88;98240.83;126086;1093;24527;-81
2021/06/25 03:28:20;;;;;;;7.15;2.40;;;;;;;17.05;88.12;98225.16;126037;1093;22811;-81
2021/06/25 03:30:46;;;;;;;3.25;2.05;;;;;;;17.08;88.27;98199.78;126029;1093;22784;-81
2021/06/25 03:33:13;;;;;;;5.63;2.20;;;;;;;17.15;88.33;98195.88;126002;1093;22761;-81
2021/06/25 03:35:55;;;;;;;3.08;2.20;;;;;;;17.22;87.92;98199.08;126121;1093;22781;-81
2021/06/25 03:38:22;;;;;;;8.20;2.40;;;;;;;17.29;87.50;98216.05;126061;1093;23385;-81
2021/06/25 03:40:48;;;;;;;4.43;2.40;;;;;;;17.36;87.46;98215.70;125982;1093;22754;-81
2021/06/25 03:43:15;;;;;;;5.98;2.70;;;;;;;17.41;87.39;98219.19;126016;1093;22766;-81
2021/06/25 03:45:57;;;;;;;5.33;2.70;;;;;;;17.47;87.23;98217.19;126041;1093;22758;-82
2021/06/25 03:48:24;;;;;;;5.00;2.03;;;;;;;17.52;87.24;98208.05;126028;1092;22839;-81
2021/06/25 03:50:50;;;;;;;6.93;2.30;;;;;;;17.55;87.08;98219.28;126231;1092;24389;-81
2021/06/25 03:53:17;;;;;;;7.48;2.38;;;;;;;17.56;87.19;98215.40;126056;1093;25970;-81
2021/06/25 03:58:30;;;;;;;4.43;2.70;;;;;;;17.60;86.29;98232.98;126175;1093;26945;-81
2021/06/25 04:00:57;;;;;;;7.53;2.48;;;;;;;17.54;85.90;98233.34;126049;1092;22751;-81
2021/06/25 04:03:38;;;;;;;5.45;2.60;;;;;;;17.49;86.59;98236.97;126177;1093;22742;-81
2021/06/25 04:06:07;;;;;;;3.38;2.50;;;;;;;17.53;87.06;98238.04;126150;1093;22750;-81
2021/06/25 04:08:35;;;;;;;5.70;2.63;;;;;;;17.60;87.16;98230.23;126236;1092;22773;-81
2021/06/25 04:11:04;;;;;;;3.97;2.67;;;;;;;17.71;87.17;98233.66;126183;1092;22742;-83
2021/06/25 04:13:32;;;;;;;4.23;2.33;;;;;;;17.80;87.35;98223.60;126240;1093;23777;-81
2021/06/25 04:15:59;;;;;;;5.03;2.30;;;;;;;17.91;87.22;98216.03;126139;1093;22847;-81
2021/06/25 04:18:26;;;;;;;3.50;1.90;;;;;;;17.99;86.86;98209.85;126091;1093;26689;-81
2021/06/25 04:20:55;;;;;;;4.30;2.38;;;;;;;18.07;86.74;98202.02;126159;1093;22790;-81
2021/06/25 04:23:22;;;;;;;3.93;2.35;;;;;;;18.14;86.73;98202.45;126185;1093;22836;-81
2021/06/25 04:25:50;;;;;;;5.65;2.80;;;;;;;18.20;86.05;98212.25;126152;1092;24399;-81
2021/06/25 04:28:32;;;;;;;5.88;2.60;;;;;;;18.25;86.06;98219.63;126215;1093;26281;-81
2021/06/25 04:30:59;;;;;;;3.70;2.50;;;;;;;18.28;86.08;98217.09;126316;1093;22820;-82
2021/06/25 04:33:26;;;;;;;5.38;2.60;;;;;;;18.33;86.27;98214.25;126512;1093;22732;-82
2021/06/25 04:35:53;;;;;;;6.20;2.70;;;;;;;18.34;85.63;98204.88;126512;1092;22848;-82
2021/06/25 04:38:21;;;;;;;4.80;2.40;;;;;;;18.42;86.01;98202.55;126675;1093;26245;-82
2021/06/25 04:40:49;;;;;;;5.03;2.53;;;;;;;18.47;86.19;98196.91;126691;1093;22909;-82
2021/06/25 04:43:17;;;;;;;4.75;2.60;;;;;;;18.54;85.68;98205.63;126585;1092;27182;-81
2021/06/25 04:45:45;;;;;;;4.50;2.53;;;;;;;18.53;85.53;98204.80;126607;1093;24290;-82
2021/06/25 04:48:14;;;;;;;5.13;2.30;;;;;;;18.56;85.33;98195.11;126737;1092;25833;-82
2021/06/25 04:50:56;;;;;;;2.90;2.25;;;;;;;18.58;85.20;98195.63;126549;1093;22920;-82
2021/06/25 04:53:24;;;;;;;8.18;2.93;;;;;;;18.57;84.99;98178.27;126598;1092;22809;-82
2021/06/25 04:55:51;;;;;;;5.65;2.78;;;;;;;18.55;85.11;98174.16;126562;1092;25941;-82
2021/06/25 04:58:18;;;;;;;4.33;2.60;;;;;;;18.56;85.07;98178.56;126542;1093;26321;-82
2021/06/25 05:00:46;;;;;;;6.13;2.60;;;;;;;18.56;85.28;98173.86;126462;1093;22841;-82
2021/06/25 05:03:13;;;;;;;4.48;2.98;;;;;;;18.57;85.15;98178.27;126546;1093;22906;-82
2021/06/25 05:05:45;;;;;;;5.07;2.80;;;;;;;18.53;85.25;98176.41;126514;1092;22797;-82
2021/06/25 05:08:12;;;;;;;4.28;2.83;;;;;;;18.52;85.39;98178.36;126537;1093;22770;-82
2021/06/25 05:10:54;;;;;;;5.83;3.18;;;;;;;18.54;85.45;98180.81;126610;1093;22818;-82
2021/06/25 05:13:35;;;;;;;4.73;2.80;;;;;;;18.58;85.71;98171.61;126404;1092;22758;-82
2021/06/25 05:16:02;;;;;;;7.35;3.30;;;;;;;18.66;85.88;98177.54;126333;1093;22765;-82
2021/06/25 05:18:29;;;;;;;5.43;3.53;;;;;;;18.77;85.63;98178.99;126302;1093;22819;-82
2021/06/25 05:20:56;;;;;;;5.50;3.23;;;;;;;18.86;85.42;98182.70;126525;1092;22764;-82
2021/06/25 05:23:23;;;;;;;7.68;3.73;;;;;;;18.96;85.39;98184.42;126485;1093;24245;-82
2021/06/25 05:26:04;;;;;;;5.73;4.15;;;;;;;19.07;85.50;98183.11;126544;1093;22914;-82
2021/06/25 05:28:32;;;;;;;6.25;3.70;;;;;;;19.18;85.51;98180.14;126559;1093;22777;-82
2021/06/25 05:30:58;;;;;;;7.28;3.90;;;;;;;19.29;85.11;98178.78;126557;1092;22746;-82
2021/06/25 05:33:25;;;;;;;7.18;3.60;;;;;;;19.35;84.55;98177.53;126332;1093;22811;-82
2021/06/25 05:35:52;;;;;;;6.13;4.25;;;;;;;19.41;84.71;98173.55;126461;1092;22761;-82
2021/06/25 05:38:19;;;;;;;5.67;4.20;;;;;;;19.53;84.56;98175.78;126487;1093;23005;-82
2021/06/25 05:40:46;;;;;;;7.67;4.40;;;;;;;19.61;84.40;98166.73;126505;1093;24415;-82
2021/06/25 05:43:13;;;;;;;6.88;3.85;;;;;;;19.70;83.92;98164.86;126534;1093;27191;-82
2021/06/25 05:45:41;;;;;;;7.05;4.03;;;;;;;19.73;83.43;98180.02;126357;1093;22822;-82
2021/06/25 05:48:08;;;;;;;8.63;3.78;;;;;;;19.79;83.03;98176.02;126489;1092;22815;-82
2021/06/25 05:50:37;;;;;;;11.10;4.50;;;;;;;19.87;83.08;98179.99;126526;1092;22808;-82
2021/06/25 05:53:04;;;;;;;8.35;3.63;;;;;;;19.95;83.03;98176.46;126453;1093;22781;-82
2021/06/25 05:55:46;;;;;;;5.90;4.05;;;;;;;20.06;82.05;98185.32;126576;1093;22778;-82
2021/06/25 05:58:13;;;;;;;6.30;3.55;;;;;;;20.15;80.79;98188.98;126587;1093;22842;-82
2021/06/25 06:00:40;;;;;;;7.27;3.77;;;;;;;20.27;81.42;98193.92;126463;1093;22913;-81
2021/06/25 06:03:07;;;;;;;7.18;3.55;;;;;;;20.36;80.87;98194.81;126332;1093;22860;-82
2021/06/25 06:05:36;;;;;;;6.35;3.98;;;;;;;20.40;80.63;98192.23;126329;1093;22787;-81
2021/06/25 06:08:04;;;;;;;6.23;3.30;;;;;;;20.50;80.55;98189.18;126582;1093;22771;-82
2021/06/25 06:10:32;;;;;;;9.40;3.28;;;;;;;20.62;81.33;98186.67;126674;1093;22925;-81
2021/06/25 06:12:59;;;;;;;10.35;3.03;;;;;;;20.73;80.17;98194.70;126316;1093;22870;-81
2021/06/25 06:15:28;;;;;;;6.90;3.38;;;;;;;20.84;79.58;98193.27;126542;1092;25877;-82
2021/06/25 06:17:58;;;;;;;6.40;3.70;;;;;;;20.91;79.89;98190.89;126466;1093;25979;-82
2021/06/25 06:20:40;;;;;;;7.40;3.03;;;;;;;20.97;78.98;98194.33;126520;1093;22813;-82
2021/06/25 06:31:25;;;;;;;6.40;3.20;;;;;;;21.22;78.82;98215.73;126475;1092;22779;-82
2021/06/25 06:36:27;;;;;;;4.65;2.35;;;;;;;21.32;78.05;98230.41;126526;1092;22818;-82
2021/06/25 06:38:59;;;;;;;5.53;2.65;;;;;;;21.36;76.71;98231.42;126372;1093;23727;-82
2021/06/25 06:41:28;;;;;;;5.30;2.70;;;;;;;21.31;76.08;98220.49;126623;1093;22797;-82
2021/06/25 06:43:55;;;;;;;4.98;2.58;;;;;;;21.18;76.01;98231.37;126333;1093;23423;-82
2021/06/25 06:46:23;;;;;;;6.37;2.70;;;;;;;21.02;76.54;98230.17;126392;1093;26274;-82
2021/06/25 06:49:05;;;;;;;9.13;2.50;;;;;;;20.97;77.60;98235.85;126504;1093;22811;-81
2021/06/25 06:51:33;;;;;;;9.65;3.08;;;;;;;20.97;76.36;98235.85;126306;1092;26303;-82
2021/06/25 06:54:01;;;;;;;4.85;2.50;;;;;;;20.97;76.35;98236.66;126440;1093;22757;-82
2021/06/25 06:56:29;;;;;;;7.35;2.65;;;;;;;21.09;77.22;98238.00;126467;1093;22864;-82
2021/06/25 06:58:56;;;;;;;5.38;2.20;;;;;;;21.14;76.47;98246.16;126501;1093;22896;-82
2021/06/25 07:01:24;;;;;;;4.83;2.50;;;;;;;21.19;76.05;98246.02;126454;1093;22767;-82
2021/06/25 07:03:51;;;;;;;2.15;1.95;;;;;;;21.16;75.41;98250.27;126463;1092;22801;-82
2021/06/25 07:06:18;;;;;;;5.18;2.10;;;;;;;21.00;74.24;98243.50;126459;1093;22824;-82
2021/06/25 07:08:46;;;;;;;3.95;2.35;;;;;;;20.82;75.09;98248.98;126701;1092;22793;-82
2021/06/25 07:11:13;;;;;;;2.75;1.63;;;;;;;20.80;76.05;98247.64;126389;1093;23581;-83
2021/06/25 07:13:40;;;;;;;5.70;2.08;;;;;;;20.82;76.21;98253.67;126307;1092;22849;-82
2021/06/25 07:16:07;;;;;;;5.63;2.00;;;;;;;20.86;75.97;98249.16;126371;1092;25873;-83
2021/06/25 07:18:34;;;;;;;5.18;2.50;;;;;;;20.83;75.76;98241.48;126292;1092;22757;-82
2021/06/25 07:21:00;;;;;;;9.05;2.35;;;;;;;20.77;75.55;98239.97;126386;1093;26395;-82
2021/06/25 07:23:27;;;;;;;3.83;1.75;;;;;;;20.77;75.60;98251.04;126500;1092;22819;-82
2021/06/25 07:25:54;;;;;;;4.53;1.90;;;;;;;20.79;76.28;98246.03;126472;1093;22789;-83
2021/06/25 07:28:21;;;;;;;3.88;2.00;;;;;;;20.77;75.41;98246.34;126325;1093;22854;-83
2021/06/25 07:30:48;;;;;;;4.78;2.65;;;;;;;20.74;75.26;98248.92;126642;1093;22776;-82
2021/06/25 07:33:16;;;;;;;4.80;2.00;;;;;;;20.70;74.80;98243.21;126304;1093;22767;-83
2021/06/25 07:35:42;;;;;;;3.10;1.80;;;;;;;20.75;75.69;98247.77;126461;1093;24415;-82
2021/06/25 07:38:24;;;;;;;8.55;2.80;;;;;;;20.88;75.14;98243.30;126459;1093;26289;-83
2021/06/25 07:40:51;;;;;;;3.17;2.10;;;;;;;20.96;75.07;98242.51;126316;1093;22760;-82
2021/06/25 07:43:18;;;;;;;7.85;2.30;;;;;;;21.04;76.14;98248.09;126303;1093;22767;-82
2021/06/25 07:45:59;;;;;;;4.63;2.13;;;;;;;21.22;75.78;98246.20;126525;1093;22784;-82
2021/06/25 07:48:26;;;;;;;3.85;2.13;;;;;;;21.49;76.37;98252.66;126310;1093;22812;-79
2021/06/25 07:50:53;;;;;;;4.95;2.65;;;;;;;21.73;75.17;98252.23;126112;1092;22770;-82
2021/06/25 07:53:20;;;;;;;5.63;2.70;;;;;;;21.94;75.28;98254.39;126160;1093;22864;-82
2021/06/25 07:55:47;;;;;;;5.08;2.53;;;;;;;22.03;72.12;98244.11;126164;1093;26261;-82
2021/06/25 07:58:17;;;;;;;5.55;2.45;;;;;;;22.21;73.49;98249.66;126270;1093;27413;-82
2021/06/25 08:00:44;;;;;;;5.93;2.80;;;;;;;22.38;72.91;98252.42;126341;1093;24147;-82
2021/06/25 08:03:11;;;;;;;4.55;2.30;;;;;;;22.54;71.96;98241.63;126194;1093;22763;-82
2021/06/25 08:05:38;;;;;;;4.15;2.48;;;;;;;22.59;70.55;98241.45;126082;1093;24609;-82
2021/06/25 08:08:06;;;;;;;7.08;2.50;;;;;;;22.73;71.62;98241.27;126194;1093;22762;-82
2021/06/25 08:10:34;;;;;;;5.13;2.43;;;;;;;22.70;69.10;98239.14;126192;1093;22762;-82
2021/06/25 08:13:01;;;;;;;6.60;2.63;;;;;;;22.50;67.76;98238.69;126178;1093;22739;-83
2021/06/25 08:15:28;;;;;;;6.80;2.75;;;;;;;22.45;70.25;98252.77;126165;1093;24551;-82
2021/06/25 08:17:55;;;;;;;4.30;2.68;;;;;;;22.55;70.38;98244.07;126152;1093;22794;-82
2021/06/25 08:20:22;;;;;;;7.60;2.43;;;;;;;22.72;69.75;98246.01;126063;1093;22941;-83
2021/06/25 08:22:49;;;;;;;5.18;2.20;;;;;;;22.89;69.25;98250.67;126204;1093;22921;-82
2021/06/25 08:25:16;;;;;;;3.38;2.38;;;;;;;23.02;67.39;98254.41;126126;1093;22848;-82
2021/06/25 08:27:44;;;;;;;4.40;2.63;;;;;;;22.97;66.37;98260.14;126193;1093;25884;-82
2021/06/25 08:30:12;;;;;;;5.40;2.45;;;;;;;22.94;67.73;98260.80;126085;1092;24402;-83
2021/06/25 08:32:39;;;;;;;8.30;3.13;;;;;;;22.91;67.93;98265.07;126181;1093;22753;-82
2021/06/25 08:35:24;;;;;;;6.53;2.50;;;;;;;22.91;67.33;98269.78;126182;1092;22754;-83
2021/06/25 08:37:52;;;;;;;6.10;2.97;;;;;;;22.96;68.95;98268.80;126641;1092;23681;-82
2021/06/25 08:40:20;;;;;;;5.50;2.70;;;;;;;23.01;68.23;98272.21;126663;1093;22774;-82
2021/06/25 08:42:48;;;;;;;5.45;3.25;;;;;;;23.10;69.18;98273.02;126551;1093;22773;-82
2021/06/25 08:45:17;;;;;;;7.43;2.80;;;;;;;23.16;68.41;98270.90;126739;1092;26286;-82
2021/06/25 08:47:46;;;;;;;4.68;2.98;;;;;;;23.15;68.83;98271.23;126679;1093;22915;-82
2021/06/25 08:50:16;;;;;;;6.93;2.95;;;;;;;23.17;67.80;98272.52;126578;1093;22762;-82
2021/06/25 08:52:46;;;;;;;5.25;2.80;;;;;;;22.97;66.89;98278.78;126731;1093;22759;-82
2021/06/25 08:55:16;;;;;;;4.90;2.80;;;;;;;22.84;67.93;98281.42;126718;1093;22792;-82
2021/06/25 08:57:44;;;;;;;7.93;2.70;;;;;;;22.76;66.93;98285.03;126644;1093;27332;-82
2021/06/25 09:00:15;;;;;;;8.05;3.70;;;;;;;22.63;67.77;98291.57;126560;1093;26360;-82
2021/06/25 09:02:45;;;;;;;5.18;2.55;;;;;;;22.51;67.70;98295.03;126750;1093;26306;-82
2021/06/25 09:05:30;;;;;;;7.35;3.00;;;;;;;22.37;68.59;98289.65;126472;1092;22760;-82
2021/06/25 09:08:25;;;;;;;7.35;3.78;;;;;;;22.32;69.33;98285.07;126602;1092;22775;-82
2021/06/25 09:10:56;;;;;;;8.18;3.63;;;;;;;22.36;69.80;98283.30;126941;1092;23405;-82
2021/06/25 09:13:37;;;;;;;10.08;4.78;;;;;;;22.43;69.67;98273.64;126681;1093;22792;-82
2021/06/25 09:16:24;;;;;;;11.93;4.88;;;;;;;22.56;69.93;98269.89;126617;1093;25868;-82
2021/06/25 09:19:01;;;;;;;4.83;3.87;;;;;;;22.71;70.10;98277.67;126630;1093;25842;-82
2021/06/25 09:21:32;;;;;;;6.63;3.88;;;;;;;22.82;70.18;98280.92;126691;1093;24412;-82
2021/06/25 09:24:24;;;;;;;7.63;4.73;;;;;;;22.95;69.54;98279.11;126329;1093;25867;-82
2021/06/25 09:27:01;;;;;;;8.98;5.28;;;;;;;23.05;70.06;98275.17;126194;1093;22928;-82
2021/06/25 09:29:34;;;;;;;8.35;4.65;;;;;;;23.23;70.67;98256.47;126205;1093;22831;-82
2021/06/25 09:32:04;;;;;;;5.85;4.45;;;;;;;23.46;69.88;98257.84;126286;1093;22814;-82
2021/06/25 09:34:53;;;;;;;8.73;5.93;;;;;;;23.63;69.88;98262.47;126315;1092;27137;-82
2021/06/25 09:37:21;;;;;;;10.60;5.50;;;;;;;23.75;67.14;98258.97;126246;1093;22959;-82
2021/06/25 09:40:01;;;;;;;9.53;5.38;;;;;;;23.77;66.87;98255.86;126192;1093;22794;-82
2021/06/25 09:42:29;;;;;;;7.05;5.60;;;;;;;23.80;66.70;98255.19;126281;1093;22767;-82
2021/06/25 09:45:15;;;;;;;6.87;5.27;;;;;;;23.84;67.33;98258.95;126371;1092;22916;-82
2021/06/25 09:47:51;;;;;;;8.30;5.63;;;;;;;23.86;67.01;98267.76;126801;1092;22756;-82
2021/06/25 09:50:28;;;;;;;9.47;5.40;;;;;;;23.90;66.66;98276.24;126279;1093;22754;-82
2021/06/25 09:53:00;;;;;;;10.68;6.23;;;;;;;23.85;66.57;98282.80;126185;1093;22908;-82
2021/06/25 09:55:48;;;;;;;7.65;6.20;;;;;;;23.81;67.32;98276.30;126225;1093;27911;-82
2021/06/25 10:01:26;;;;;;;7.93;5.40;;;;;;;23.90;67.80;98293.73;126206;1093;25973;-82
2021/06/25 10:03:58;;;;;;;10.28;6.38;;;;;;;23.91;67.07;98297.36;126219;1093;26229;-82
2021/06/25 10:06:30;;;;;;;10.20;6.15;;;;;;;23.85;66.67;98297.55;126190;1092;22781;-82
2021/06/25 10:08:58;;;;;;;9.40;6.40;;;;;;;23.69;66.74;98288.95;126231;1093;22867;-82
2021/06/25 10:11:28;;;;;;;11.18;6.60;;;;;;;23.58;67.76;98287.68;126274;1093;22758;-82
2021/06/25 10:13:57;;;;;;;12.98;6.78;;;;;;;23.54;68.19;98303.41;126196;1093;22935;-82
2021/06/25 10:16:25;;;;;;;;;;;;;;;23.41;67.44;98302.50;126332;1093;22782;-82
2021/06/25 10:18:55;;;;;;;9.68;6.80;;;;;;;23.30;69.06;98298.44;126179;1093;21508;-82
2021/06/25 10:21:25;;;;;;;7.38;6.13;;;;;;;23.24;68.75;98306.15;126194;1093;26671;-82
2021/06/25 10:23:55;;;;;;;8.75;6.28;;;;;;;23.23;69.05;98300.92;126219;1093;22792;-82
2021/06/25 10:26:24;;;;;;;7.63;6.40;;;;;;;23.25;69.07;98305.02;126226;1093;26255;-82
2021/06/25 10:28:52;;;;;;;8.95;6.33;;;;;;;23.22;68.91;98294.55;126275;1092;22922;-82
2021/06/25 10:31:23;;;;;;;10.10;5.93;;;;;;;23.08;68.04;98286.44;126248;1093;22913;-82
2021/06/25 10:34:06;;;;;;;11.58;7.05;;;;;;;22.90;68.78;98293.98;126163;1092;22861;-82
2021/06/25 10:36:36;;;;;;;15.30;7.28;;;;;;;22.85;69.64;98301.67;126168;1093;22941;-82
2021/06/25 10:39:10;;;;;;;13.65;7.25;;;;;;;22.86;70.49;98320.78;126194;1093;25226;-82
2021/06/25 10:41:53;;;;;;;10.07;6.80;;;;;;;22.89;71.12;98310.96;126248;1093;22934;-82
2021/06/25 10:44:44;;;;;;;12.33;6.95;;;;;;;22.94;70.93;98330.23;126203;1093;22757;-82
2021/06/25 10:47:28;;;;;;;9.28;7.25;;;;;;;22.96;70.98;98324.34;126169;1092;24556;-82
2021/06/25 10:50:01;;;;;;;9.05;7.03;;;;;;;22.97;70.69;98324.02;126181;1093;22828;-82
2021/06/25 10:52:29;;;;;;;10.30;7.35;;;;;;;22.98;70.84;98319.27;126179;1092;22778;-82
2021/06/25 10:55:01;;;;;;;11.97;7.80;;;;;;;22.97;70.98;98332.36;126277;1091;22735;-82
2021/06/25 10:57:36;;;;;;;11.73;7.90;;;;;;;22.90;70.34;98335.63;126212;1092;24582;-82
2021/06/25 11:00:06;;;;;;;11.50;7.28;;;;;;;22.79;70.14;98333.52;126409;1093;23055;-82
2021/06/25 11:02:45;;;;;;;11.20;8.03;;;;;;;22.71;70.53;98347.08;126242;1093;22758;-82
2021/06/25 11:05:35;;;;;;;;;;;;;;;22.62;70.81;98354.61;126353;1092;22945;-82
2021/06/25 11:08:16;;;;;;;10.53;8.55;;;;;;;22.55;71.22;98343.98;126147;1093;21521;-82
2021/06/25 11:10:54;;;;;;;12.60;9.00;;;;;;;22.51;71.37;98344.98;126176;1092;24399;-82
2021/06/25 11:13:24;;;;;;;13.40;8.98;;;;;;;22.39;72.03;98345.63;126165;1093;24399;-82
2021/06/25 11:15:53;;;;;;;10.68;8.80;;;;;;;22.29;72.57;98343.17;126198;1093;27179;-82
2021/06/25 11:18:22;;;;;;;13.28;9.08;;;;;;;22.21;72.86;98346.74;126213;1093;22809;-82
2021/06/25 11:21:03;;;;;;;14.35;10.70;;;;;;;22.21;73.28;98352.29;126215;1092;25838;-82
2021/06/25 11:23:47;;;;;;;14.80;12.03;;;;;;;22.17;73.99;98361.25;126139;1093;22787;-82
2021/06/25 11:26:14;;;;;;;18.05;16.08;;;;;;;22.07;74.02;98363.52;126196;1093;27534;-82
2021/06/25 11:28:46;;;;;;;15.73;12.73;;;;;;;21.92;74.60;98371.16;126229;1093;22748;-81
2021/06/25 11:31:13;;;;;;;17.07;11.13;;;;;;;21.66;75.37;98390.47;126097;1093;22786;-81
2021/06/25 11:34:00;;;;;;;14.55;11.58;;;;;;;21.32;76.11;98389.14;126086;1093;26309;-81
2021/06/25 11:36:33;;;;;;;15.70;11.88;;;;;;;20.95;77.14;98391.20;126163;1093;22925;-81
2021/06/25 11:39:21;;;;;;;15.48;12.35;;;;;;;20.70;78.47;98392.64;126235;1093;24447;-81
2021/06/25 11:41:57;;;;;;;17.45;13.65;;;;;;;20.51;79.28;98390.01;126060;1093;24472;-81
2021/06/25 11:44:52;;;;;;;16.33;12.30;;;;;;;20.40;80.40;98388.62;126274;1093;22925;-82
2021/06/25 11:47:30;;;;;;;15.13;12.43;;;;;;;20.30;81.33;98389.66;126167;1093;26255;-82
2021/06/25 11:50:15;;;;;;;14.60;12.20;;;;;;;20.25;81.61;98390.58;126068;1093;24406;-82
2021/06/25 11:52:43;;;;;;;16.70;11.73;;;;;;;20.16;82.14;98386.91;126214;1092;22809;-82
2021/06/25 11:55:13;;;;;;;15.30;11.75;;;;;;;20.07;82.49;98389.59;126159;1093;22916;-82
2021/06/25 11:57:42;;;;;;;14.75;11.50;;;;;;;20.00;82.63;98388.38;126218;1093;22777;-82